createdAt,value
2023-05-15T00:00:47.117Z,932.74
2023-05-15T00:01:48.060Z,932.74
2023-05-15T00:02:48.793Z,932.73
2023-05-15T00:03:49.852Z,932.72
2023-05-15T00:04:50.173Z,932.69
2023-05-15T00:05:50.510Z,932.7
2023-05-15T00:06:51.421Z,932.68
2023-05-15T00:07:51.912Z,932.69
2023-05-15T00:08:52.621Z,932.66
2023-05-15T00:09:53.349Z,932.65
2023-05-15T00:11:01.247Z,932.64
2023-05-15T00:11:54.844Z,932.69
2023-05-15T00:12:55.353Z,932.66
2023-05-15T00:13:56.061Z,932.63
2023-05-15T00:14:56.823Z,932.63
2023-05-15T00:15:57.661Z,932.61
2023-05-15T00:16:58.368Z,932.63
2023-05-15T00:17:59.155Z,932.61
2023-05-15T00:19:00.358Z,932.67
2023-05-15T00:20:01.275Z,932.62
2023-05-15T00:21:01.955Z,932.6
2023-05-15T00:22:02.459Z,932.61
2023-05-15T00:23:03.159Z,932.61
2023-05-15T00:24:03.853Z,932.58
2023-05-15T00:25:04.734Z,932.59
2023-05-15T00:26:05.657Z,932.57
2023-05-15T00:27:06.635Z,932.6
2023-05-15T00:28:07.378Z,932.61
2023-05-15T00:29:08.076Z,932.6
2023-05-15T00:30:08.622Z,932.62
2023-05-15T00:31:09.410Z,932.59
2023-05-15T00:32:10.420Z,932.56
2023-05-15T00:33:11.035Z,932.57
2023-05-15T00:34:11.336Z,932.58
2023-05-15T00:35:12.050Z,932.58
2023-05-15T00:36:12.482Z,932.61
2023-05-15T00:37:12.759Z,932.56
2023-05-15T00:38:13.653Z,932.59
2023-05-15T00:39:14.357Z,932.58
2023-05-15T00:40:14.868Z,932.57
2023-05-15T00:41:15.476Z,932.56
2023-05-15T00:42:16.415Z,932.6
2023-05-15T00:43:17.107Z,932.59
2023-05-15T00:44:17.587Z,932.59
2023-05-15T00:45:17.913Z,932.58
2023-05-15T00:46:18.162Z,932.58
2023-05-15T00:47:18.341Z,932.6
2023-05-15T00:48:19.018Z,932.59
2023-05-15T00:49:19.514Z,932.57
2023-05-15T00:50:20.332Z,932.55
2023-05-15T00:51:21.389Z,932.56
2023-05-15T00:52:22.314Z,932.55
2023-05-15T00:53:22.417Z,932.57
2023-05-15T00:54:23.263Z,932.56
2023-05-15T00:55:23.895Z,932.52
2023-05-15T00:56:23.950Z,932.54
2023-05-15T00:57:24.284Z,932.51
2023-05-15T00:58:24.998Z,932.51
2023-05-15T00:59:25.677Z,932.48
2023-05-15T01:00:26.394Z,932.5
2023-05-15T01:01:26.645Z,932.49
2023-05-15T01:02:27.141Z,932.5
2023-05-15T01:03:27.372Z,932.47
2023-05-15T01:04:27.816Z,932.48
2023-05-15T01:05:28.312Z,932.46
2023-05-15T01:06:28.826Z,932.49
2023-05-15T01:07:29.132Z,932.49
2023-05-15T01:08:29.450Z,932.49
2023-05-15T01:09:29.928Z,932.49
2023-05-15T01:10:30.815Z,932.49
2023-05-15T01:11:30.939Z,932.49
2023-05-15T01:12:31.945Z,932.47
2023-05-15T01:13:32.463Z,932.49
2023-05-15T01:14:33.146Z,932.47
2023-05-15T01:15:34.069Z,932.44
2023-05-15T01:16:34.805Z,932.46
2023-05-15T01:17:35.576Z,932.45
2023-05-15T01:18:36.396Z,932.44
2023-05-15T01:19:36.746Z,932.45
2023-05-15T01:20:37.276Z,932.45
2023-05-15T01:21:37.730Z,932.4
2023-05-15T01:22:38.011Z,932.53
2023-05-15T01:23:38.531Z,932.41
2023-05-15T01:24:39.026Z,932.43
2023-05-15T01:25:39.979Z,932.45
2023-05-15T01:26:40.281Z,932.4
2023-05-15T01:27:41.056Z,932.41
2023-05-15T01:28:41.802Z,932.41
2023-05-15T01:29:42.306Z,932.47
2023-05-15T01:30:43.291Z,932.45
2023-05-15T01:31:44.416Z,932.46
2023-05-15T01:32:45.249Z,932.42
2023-05-15T01:33:46.012Z,932.42
2023-05-15T01:34:46.934Z,932.46
2023-05-15T01:35:47.709Z,932.45
2023-05-15T01:36:48.453Z,932.44
2023-05-15T01:37:48.818Z,932.46
2023-05-15T01:38:49.313Z,932.42
2023-05-15T01:39:49.646Z,932.44
2023-05-15T01:40:49.767Z,932.44
2023-05-15T01:41:50.741Z,932.47
2023-05-15T01:42:51.269Z,932.49
2023-05-15T01:43:51.608Z,932.42
2023-05-15T01:44:52.315Z,932.45
2023-05-15T01:45:53.082Z,932.43
2023-05-15T01:46:53.976Z,932.43
2023-05-15T01:47:54.223Z,932.43
2023-05-15T01:48:54.552Z,932.45
2023-05-15T01:49:55.478Z,932.45
2023-05-15T01:50:56.178Z,932.43
2023-05-15T01:51:57.024Z,932.43
2023-05-15T01:52:57.295Z,932.43
2023-05-15T01:53:58.196Z,932.42
2023-05-15T01:54:58.932Z,932.41
2023-05-15T01:55:59.706Z,932.41
2023-05-15T01:57:00.610Z,932.4
2023-05-15T01:58:01.137Z,932.38
2023-05-15T01:59:01.645Z,932.38
2023-05-15T02:00:02.337Z,932.42
2023-05-15T02:01:03.016Z,932.43
2023-05-15T02:02:03.713Z,932.4
2023-05-15T02:03:03.710Z,932.4
2023-05-15T02:04:04.612Z,932.42
2023-05-15T02:05:05.331Z,932.4
2023-05-15T02:06:06.237Z,932.35
2023-05-15T02:07:06.556Z,932.39
2023-05-15T02:08:07.259Z,932.37
2023-05-15T02:09:07.738Z,932.41
2023-05-15T02:10:08.047Z,932.37
2023-05-15T02:11:08.734Z,932.39
2023-05-15T02:12:09.177Z,932.41
2023-05-15T02:13:09.927Z,932.39
2023-05-15T02:14:10.699Z,932.4
2023-05-15T02:15:11.613Z,932.39
2023-05-15T02:16:12.625Z,932.36
2023-05-15T02:17:13.710Z,932.37
2023-05-15T02:18:14.032Z,932.42
2023-05-15T02:19:14.669Z,932.39
2023-05-15T02:20:15.491Z,932.38
2023-05-15T02:21:16.383Z,932.42
2023-05-15T02:22:16.886Z,932.38
2023-05-15T02:23:17.572Z,932.37
2023-05-15T02:24:18.296Z,932.33
2023-05-15T02:25:18.815Z,932.34
2023-05-15T02:26:19.778Z,932.35
2023-05-15T02:27:20.295Z,932.32
2023-05-15T02:28:20.812Z,932.36
2023-05-15T02:29:21.598Z,932.32
2023-05-15T02:30:22.535Z,932.35
2023-05-15T02:31:24.351Z,932.32
2023-05-15T02:32:23.274Z,932.31
2023-05-15T02:33:23.807Z,932.33
2023-05-15T02:34:24.711Z,932.35
2023-05-15T02:35:25.580Z,932.32
2023-05-15T02:36:26.052Z,932.34
2023-05-15T02:37:26.736Z,932.3
2023-05-15T02:38:27.222Z,932.32
2023-05-15T02:39:27.984Z,932.34
2023-05-15T02:40:28.080Z,932.32
2023-05-15T02:41:28.801Z,932.28
2023-05-15T02:42:29.619Z,932.27
2023-05-15T02:43:30.496Z,932.29
2023-05-15T02:44:31.273Z,932.31
2023-05-15T02:45:31.575Z,932.26
2023-05-15T02:46:32.043Z,932.26
2023-05-15T02:47:32.440Z,932.26
2023-05-15T02:48:32.698Z,932.25
2023-05-15T02:49:33.007Z,932.23
2023-05-15T02:50:33.505Z,932.26
2023-05-15T02:51:34.597Z,932.29
2023-05-15T02:52:35.093Z,932.28
2023-05-15T02:53:35.379Z,932.29
2023-05-15T02:54:36.319Z,932.26
2023-05-15T02:55:36.611Z,932.3
2023-05-15T02:56:37.510Z,932.29
2023-05-15T02:57:38.229Z,932.3
2023-05-15T02:58:39.184Z,932.31
2023-05-15T02:59:39.513Z,932.33
2023-05-15T03:00:40.435Z,932.3
2023-05-15T03:01:40.922Z,932.26
2023-05-15T03:02:41.760Z,932.32
2023-05-15T03:03:41.977Z,932.29
2023-05-15T03:04:42.880Z,932.28
2023-05-15T03:05:43.140Z,932.33
2023-05-15T03:06:43.845Z,932.32
2023-05-15T03:07:44.135Z,932.29
2023-05-15T03:08:44.511Z,932.31
2023-05-15T03:09:45.056Z,932.3
2023-05-15T03:10:45.784Z,932.29
2023-05-15T03:11:46.150Z,932.32
2023-05-15T03:12:46.596Z,932.29
2023-05-15T03:13:47.356Z,932.32
2023-05-15T03:14:47.975Z,932.34
2023-05-15T03:15:48.073Z,932.31
2023-05-15T03:16:48.756Z,932.34
2023-05-15T03:17:49.085Z,932.32
2023-05-15T03:18:49.417Z,932.3
2023-05-15T03:19:50.465Z,932.28
2023-05-15T03:20:51.392Z,932.35
2023-05-15T03:21:52.331Z,932.3
2023-05-15T03:22:53.172Z,932.31
2023-05-15T03:23:53.652Z,932.3
2023-05-15T03:24:54.596Z,932.3
2023-05-15T03:25:55.082Z,932.29
2023-05-15T03:26:55.805Z,932.27
2023-05-15T03:27:56.546Z,932.3
2023-05-15T03:28:57.489Z,932.28
2023-05-15T03:29:57.642Z,932.27
2023-05-15T03:30:58.540Z,932.28
2023-05-15T03:31:59.322Z,932.26
2023-05-15T03:33:00.093Z,932.29
2023-05-15T03:34:01.024Z,932.28
2023-05-15T03:35:01.543Z,932.26
2023-05-15T03:36:01.893Z,932.28
2023-05-15T03:37:02.802Z,932.3
2023-05-15T03:38:03.492Z,932.28
2023-05-15T03:39:04.198Z,932.22
2023-05-15T03:40:05.114Z,932.26
2023-05-15T03:41:05.361Z,932.25
2023-05-15T03:42:06.004Z,932.27
2023-05-15T03:43:06.464Z,932.3
2023-05-15T03:44:07.559Z,932.29
2023-05-15T03:45:08.301Z,932.32
2023-05-15T03:46:09.316Z,932.29
2023-05-15T03:47:10.140Z,932.31
2023-05-15T03:48:10.963Z,932.31
2023-05-15T03:49:11.895Z,932.32
2023-05-15T03:50:12.594Z,932.32
2023-05-15T03:51:13.261Z,932.32
2023-05-15T03:52:13.772Z,932.35
2023-05-15T03:53:14.443Z,932.33
2023-05-15T03:54:15.169Z,932.36
2023-05-15T03:55:16.092Z,932.38
2023-05-15T03:56:16.390Z,932.38
2023-05-15T03:57:16.723Z,932.36
2023-05-15T03:58:17.567Z,932.37
2023-05-15T03:59:18.475Z,932.41
2023-05-15T04:00:19.268Z,932.39
2023-05-15T04:01:18.945Z,932.41
2023-05-15T04:02:20.042Z,932.38
2023-05-15T04:03:20.595Z,932.41
2023-05-15T04:04:20.837Z,932.45
2023-05-15T04:05:21.356Z,932.41
2023-05-15T04:06:22.101Z,932.42
2023-05-15T04:07:23.202Z,932.46
2023-05-15T04:08:23.762Z,932.4
2023-05-15T04:09:24.264Z,932.39
2023-05-15T04:10:24.957Z,932.37
2023-05-15T04:11:25.447Z,932.4
2023-05-15T04:12:25.954Z,932.38
2023-05-15T04:13:26.448Z,932.37
2023-05-15T04:14:27.381Z,932.46
2023-05-15T04:15:28.297Z,932.43
2023-05-15T04:16:29.194Z,932.41
2023-05-15T04:17:29.695Z,932.39
2023-05-15T04:18:30.613Z,932.41
2023-05-15T04:19:30.852Z,932.42
2023-05-15T04:20:30.944Z,932.45
2023-05-15T04:21:31.450Z,932.45
2023-05-15T04:22:32.356Z,932.42
2023-05-15T04:23:33.169Z,932.44
2023-05-15T04:24:33.859Z,932.48
2023-05-15T04:25:34.577Z,932.44
2023-05-15T04:26:35.526Z,932.43
2023-05-15T04:27:36.489Z,932.44
2023-05-15T04:28:37.039Z,932.4
2023-05-15T04:29:38.031Z,932.42
2023-05-15T04:30:38.307Z,932.41
2023-05-15T04:31:38.880Z,932.41
2023-05-15T04:32:39.901Z,932.41
2023-05-15T04:33:40.458Z,932.42
2023-05-15T04:34:41.405Z,932.42
2023-05-15T04:35:41.908Z,932.42
2023-05-15T04:36:42.855Z,932.43
2023-05-15T04:37:42.770Z,932.4
2023-05-15T04:38:43.289Z,932.41
2023-05-15T04:39:43.620Z,932.42
2023-05-15T04:40:44.421Z,932.4
2023-05-15T04:41:45.016Z,932.41
2023-05-15T04:42:45.704Z,932.4
2023-05-15T04:43:46.803Z,932.39
2023-05-15T04:44:47.786Z,932.43
2023-05-15T04:45:48.865Z,932.41
2023-05-15T04:46:49.340Z,932.42
2023-05-15T04:47:50.067Z,932.43
2023-05-15T04:48:50.422Z,932.43
2023-05-15T04:49:51.403Z,932.46
2023-05-15T04:50:51.901Z,932.42
2023-05-15T04:51:52.394Z,932.41
2023-05-15T04:52:53.134Z,932.43
2023-05-15T04:53:53.793Z,932.38
2023-05-15T04:54:54.285Z,932.44
2023-05-15T04:55:55.014Z,932.44
2023-05-15T04:56:55.562Z,932.4
2023-05-15T04:57:55.684Z,932.47
2023-05-15T04:58:55.981Z,932.45
2023-05-15T04:59:56.658Z,932.44
2023-05-15T05:00:56.902Z,932.46
2023-05-15T05:01:57.774Z,932.46
2023-05-15T05:02:58.716Z,932.5
2023-05-15T05:03:59.741Z,932.51
2023-05-15T05:05:00.401Z,932.53
2023-05-15T05:06:01.285Z,932.55
2023-05-15T05:07:01.877Z,932.55
2023-05-15T05:08:02.709Z,932.54
2023-05-15T05:09:03.805Z,932.51
2023-05-15T05:10:04.396Z,932.53
2023-05-15T05:11:04.692Z,932.54
2023-05-15T05:12:05.222Z,932.56
2023-05-15T05:13:05.940Z,932.56
2023-05-15T05:14:06.771Z,932.55
2023-05-15T05:15:07.470Z,932.61
2023-05-15T05:16:08.611Z,932.59
2023-05-15T05:17:09.597Z,932.6
2023-05-15T05:18:10.376Z,932.57
2023-05-15T05:19:11.410Z,932.59
2023-05-15T05:20:13.022Z,932.61
2023-05-15T05:21:11.678Z,932.57
2023-05-15T05:22:11.954Z,932.63
2023-05-15T05:23:12.860Z,932.62
2023-05-15T05:24:13.135Z,932.62
2023-05-15T05:25:13.889Z,932.6
2023-05-15T05:26:14.934Z,932.62
2023-05-15T05:27:15.244Z,932.63
2023-05-15T05:28:15.536Z,932.63
2023-05-15T05:29:15.854Z,932.63
2023-05-15T05:30:16.570Z,932.64
2023-05-15T05:31:17.142Z,932.59
2023-05-15T05:32:17.999Z,932.63
2023-05-15T05:33:18.814Z,932.68
2023-05-15T05:34:19.222Z,932.65
2023-05-15T05:35:20.008Z,932.64
2023-05-15T05:36:20.454Z,932.67
2023-05-15T05:37:21.013Z,932.67
2023-05-15T05:38:21.564Z,932.66
2023-05-15T05:39:22.475Z,932.7
2023-05-15T05:40:22.962Z,932.7
2023-05-15T05:41:23.063Z,932.69
2023-05-15T05:42:23.989Z,932.69
2023-05-15T05:43:24.899Z,932.71
2023-05-15T05:44:25.707Z,932.7
2023-05-15T05:45:26.860Z,932.66
2023-05-15T05:46:26.974Z,932.66
2023-05-15T05:47:27.130Z,932.71
2023-05-15T05:48:27.903Z,932.68
2023-05-15T05:49:28.634Z,932.72
2023-05-15T05:50:29.603Z,932.7
2023-05-15T05:51:30.597Z,932.66
2023-05-15T05:52:31.301Z,932.69
2023-05-15T05:53:31.486Z,932.63
2023-05-15T05:54:31.613Z,932.7
2023-05-15T05:55:32.177Z,932.66
2023-05-15T05:56:32.698Z,932.64
2023-05-15T05:57:33.620Z,932.68
2023-05-15T05:58:34.575Z,932.65
2023-05-15T05:59:35.349Z,932.63
2023-05-15T06:00:36.057Z,932.69
2023-05-15T06:01:36.894Z,932.67
2023-05-15T06:02:37.903Z,932.67
2023-05-15T06:03:38.312Z,932.65
2023-05-15T06:04:38.605Z,932.68
2023-05-15T06:05:38.924Z,932.71
2023-05-15T06:06:39.843Z,932.71
2023-05-15T06:07:40.559Z,932.71
2023-05-15T06:08:41.247Z,932.72
2023-05-15T06:09:42.113Z,932.71
2023-05-15T06:10:42.805Z,932.73
2023-05-15T06:11:43.304Z,932.74
2023-05-15T06:12:44.031Z,932.74
2023-05-15T06:13:44.940Z,932.75
2023-05-15T06:14:45.657Z,932.83
2023-05-15T06:15:46.001Z,932.79
2023-05-15T06:16:46.524Z,932.77
2023-05-15T06:17:47.594Z,932.81
2023-05-15T06:18:48.638Z,932.8
2023-05-15T06:19:49.601Z,932.78
2023-05-15T06:20:50.367Z,932.77
2023-05-15T06:21:50.922Z,932.79
2023-05-15T06:22:51.676Z,932.78
2023-05-15T06:23:52.378Z,932.79
2023-05-15T06:24:52.759Z,932.79
2023-05-15T06:25:53.652Z,932.81
2023-05-15T06:26:54.551Z,932.83
2023-05-15T06:27:55.091Z,932.84
2023-05-15T06:28:55.421Z,932.86
2023-05-15T06:29:55.588Z,932.88
2023-05-15T06:30:55.805Z,932.87
2023-05-15T06:31:56.113Z,932.89
2023-05-15T06:32:56.965Z,932.88
2023-05-15T06:33:57.581Z,932.89
2023-05-15T06:34:58.246Z,932.92
2023-05-15T06:35:59.062Z,932.92
2023-05-15T06:36:59.986Z,932.93
2023-05-15T06:38:00.691Z,932.9
2023-05-15T06:39:01.199Z,932.92
2023-05-15T06:40:02.024Z,932.92
2023-05-15T06:41:02.763Z,932.89
2023-05-15T06:42:03.469Z,932.91
2023-05-15T06:43:03.960Z,932.95
2023-05-15T06:44:04.715Z,932.98
2023-05-15T06:45:05.673Z,932.95
2023-05-15T06:46:06.702Z,932.95
2023-05-15T06:47:07.034Z,932.95
2023-05-15T06:48:07.033Z,932.98
2023-05-15T06:49:07.161Z,932.97
2023-05-15T06:50:07.983Z,932.98
2023-05-15T06:51:08.322Z,933
2023-05-15T06:52:08.846Z,932.97
2023-05-15T06:53:09.147Z,933
2023-05-15T06:54:09.884Z,933.01
2023-05-15T06:55:10.906Z,933.02
2023-05-15T06:56:11.968Z,932.99
2023-05-15T06:57:12.477Z,932.98
2023-05-15T06:58:13.196Z,933
2023-05-15T06:59:13.755Z,933.01
2023-05-15T07:00:14.716Z,933.04
2023-05-15T07:01:15.438Z,933.04
2023-05-15T07:02:15.909Z,933.02
2023-05-15T07:03:16.072Z,933.02
2023-05-15T07:04:16.379Z,933.03
2023-05-15T07:05:16.900Z,933.07
2023-05-15T07:06:17.546Z,933.04
2023-05-15T07:07:18.463Z,933.06
2023-05-15T07:08:19.220Z,933.03
2023-05-15T07:09:19.892Z,933.02
2023-05-15T07:10:20.861Z,933.07
2023-05-15T07:11:21.569Z,933.1
2023-05-15T07:12:21.892Z,933.03
2023-05-15T07:13:22.810Z,933.06
2023-05-15T07:14:23.747Z,933.04
2023-05-15T07:15:23.917Z,933.05
2023-05-15T07:16:24.784Z,933.07
2023-05-15T07:17:25.691Z,933.08
2023-05-15T07:18:26.049Z,933.07
2023-05-15T07:19:26.900Z,933.06
2023-05-15T07:20:29.249Z,933.01
2023-05-15T07:21:27.982Z,933.02
2023-05-15T07:22:28.839Z,933
2023-05-15T07:23:29.711Z,933.04
2023-05-15T07:24:30.217Z,933.04
2023-05-15T07:25:30.852Z,932.99
2023-05-15T07:26:36.490Z,933.01
2023-05-15T07:27:32.432Z,933.06
2023-05-15T07:28:32.631Z,933.04
2023-05-15T07:29:32.810Z,933.02
2023-05-15T07:30:33.516Z,932.98
2023-05-15T07:31:34.480Z,932.94
2023-05-15T07:32:35.339Z,932.99
2023-05-15T07:33:36.300Z,933
2023-05-15T07:34:37.233Z,932.99
2023-05-15T07:35:37.379Z,933
2023-05-15T07:36:37.767Z,933.03
2023-05-15T07:37:37.929Z,933.07
2023-05-15T07:38:38.373Z,933.09
2023-05-15T07:39:39.334Z,933.13
2023-05-15T07:40:40.364Z,933.14
2023-05-15T07:41:41.357Z,933.16
2023-05-15T07:42:42.222Z,933.16
2023-05-15T07:43:42.934Z,933.15
2023-05-15T07:44:45.048Z,933.11
2023-05-15T07:45:44.390Z,933.15
2023-05-15T07:46:45.018Z,933.14
2023-05-15T07:47:46.204Z,933.12
2023-05-15T07:48:46.417Z,933.09
2023-05-15T07:49:46.860Z,933.02
2023-05-15T07:50:47.801Z,933.05
2023-05-15T07:51:48.093Z,933.08
2023-05-15T07:52:48.867Z,933.02
2023-05-15T07:53:49.552Z,932.97
2023-05-15T07:54:50.131Z,932.94
2023-05-15T07:55:50.651Z,932.97
2023-05-15T07:56:51.646Z,932.98
2023-05-15T07:57:53.981Z,932.94
2023-05-15T07:58:52.989Z,932.97
2023-05-15T07:59:53.164Z,933
2023-05-15T08:00:53.333Z,932.91
2023-05-15T08:01:54.279Z,932.91
2023-05-15T08:02:55.287Z,932.92
2023-05-15T08:03:55.557Z,932.9
2023-05-15T08:04:55.828Z,932.93
2023-05-15T08:05:56.209Z,932.92
2023-05-15T08:06:57.126Z,932.9
2023-05-15T08:07:58.079Z,932.94
2023-05-15T08:08:58.199Z,932.95
2023-05-15T08:09:59.148Z,933.02
2023-05-15T08:10:59.269Z,932.95
2023-05-15T08:12:00.005Z,932.92
2023-05-15T08:13:00.959Z,932.93
2023-05-15T08:14:01.152Z,932.92
2023-05-15T08:15:02.000Z,932.93
2023-05-15T08:16:02.189Z,932.91
2023-05-15T08:17:02.578Z,932.91
2023-05-15T08:18:03.398Z,932.96
2023-05-15T08:19:03.733Z,932.95
2023-05-15T08:20:04.094Z,932.94
2023-05-15T08:21:04.781Z,932.94
2023-05-15T08:22:05.065Z,932.96
2023-05-15T08:23:05.799Z,932.95
2023-05-15T08:24:06.250Z,932.93
2023-05-15T08:25:06.734Z,932.93
2023-05-15T08:26:06.887Z,932.94
2023-05-15T08:27:07.873Z,932.92
2023-05-15T08:28:08.826Z,932.95
2023-05-15T08:29:09.555Z,932.98
2023-05-15T08:30:10.479Z,932.9
2023-05-15T08:31:11.459Z,932.9
2023-05-15T08:32:11.592Z,932.92
2023-05-15T08:33:12.453Z,932.94
2023-05-15T08:34:13.202Z,932.99
2023-05-15T08:35:13.313Z,933.01
2023-05-15T08:36:14.127Z,933.01
2023-05-15T08:37:14.660Z,933.08
2023-05-15T08:38:15.388Z,933.06
2023-05-15T08:39:16.372Z,933.14
2023-05-15T08:40:18.606Z,933.28
2023-05-15T08:41:21.412Z,933.3
2023-05-15T08:42:18.415Z,933.33
2023-05-15T08:43:19.276Z,933.3
2023-05-15T08:44:19.391Z,933.28
2023-05-15T08:45:19.554Z,933.3
2023-05-15T08:46:19.875Z,933.34
2023-05-15T08:47:20.232Z,933.32
2023-05-15T08:48:20.801Z,933.34
2023-05-15T08:49:21.536Z,933.3
2023-05-15T08:50:21.932Z,933.29
2023-05-15T08:51:22.748Z,933.26
2023-05-15T08:52:22.986Z,933.36
2023-05-15T08:53:23.983Z,933.41
2023-05-15T08:54:25.000Z,933.39
2023-05-15T08:55:25.453Z,933.43
2023-05-15T08:56:26.204Z,933.4
2023-05-15T08:57:27.199Z,933.42
2023-05-15T08:58:28.130Z,933.45
2023-05-15T08:59:28.750Z,933.45
2023-05-15T09:00:29.101Z,933.51
2023-05-15T09:01:29.682Z,933.49
2023-05-15T09:02:30.784Z,933.47
2023-05-15T09:03:31.320Z,933.41
2023-05-15T09:04:31.653Z,933.36
2023-05-15T09:05:32.607Z,933.35
2023-05-15T09:06:33.635Z,933.32
2023-05-15T09:07:34.013Z,933.33
2023-05-15T09:08:34.935Z,933.31
2023-05-15T09:09:35.935Z,933.27
2023-05-15T09:10:36.996Z,933.31
2023-05-15T09:11:37.980Z,933.36
2023-05-15T09:12:39.042Z,933.34
2023-05-15T09:13:40.006Z,933.34
2023-05-15T09:14:40.780Z,933.37
2023-05-15T09:15:41.765Z,933.36
2023-05-15T09:16:42.687Z,933.36
2023-05-15T09:17:42.853Z,933.34
2023-05-15T09:18:42.997Z,933.32
2023-05-15T09:19:43.427Z,933.35
2023-05-15T09:20:43.537Z,933.36
2023-05-15T09:21:44.331Z,933.43
2023-05-15T09:22:44.703Z,933.39
2023-05-15T09:23:45.329Z,933.39
2023-05-15T09:24:46.128Z,933.41
2023-05-15T09:25:46.868Z,933.35
2023-05-15T09:26:47.752Z,933.33
2023-05-15T09:27:48.544Z,933.31
2023-05-15T09:28:49.385Z,933.32
2023-05-15T09:29:49.551Z,933.3
2023-05-15T09:30:50.529Z,933.3
2023-05-15T09:31:51.373Z,933.31
2023-05-15T09:32:52.346Z,933.3
2023-05-15T09:33:52.850Z,933.32
2023-05-15T09:34:53.804Z,933.31
2023-05-15T09:35:54.543Z,933.27
2023-05-15T09:36:55.415Z,933.31
2023-05-15T09:37:55.995Z,933.27
2023-05-15T09:38:56.190Z,933.3
2023-05-15T09:39:57.280Z,933.28
2023-05-15T09:40:58.274Z,933.27
2023-05-15T09:41:59.006Z,933.28
2023-05-15T09:42:59.515Z,933.29
2023-05-15T09:44:00.068Z,933.28
2023-05-15T09:45:00.724Z,933.23
2023-05-15T09:46:01.738Z,933.24
2023-05-15T09:47:02.362Z,933.24
2023-05-15T09:48:03.159Z,933.27
2023-05-15T09:49:03.801Z,933.26
2023-05-15T09:50:03.975Z,933.22
2023-05-15T09:51:04.191Z,933.24
2023-05-15T09:52:04.828Z,933.24
2023-05-15T09:53:04.993Z,933.24
2023-05-15T09:54:05.666Z,933.26
2023-05-15T09:55:06.590Z,933.27
2023-05-15T09:56:07.670Z,933.29
2023-05-15T09:57:08.700Z,933.29
2023-05-15T09:58:09.833Z,933.32
2023-05-15T09:59:10.670Z,933.36
2023-05-15T10:00:10.795Z,933.35
2023-05-15T10:01:11.124Z,933.41
2023-05-15T10:02:12.111Z,933.4
2023-05-15T10:03:12.287Z,933.39
2023-05-15T10:04:12.469Z,933.37
2023-05-15T10:05:12.625Z,933.39
2023-05-15T10:06:13.628Z,933.36
2023-05-15T10:07:13.903Z,933.37
2023-05-15T10:08:14.564Z,933.32
2023-05-15T10:09:15.582Z,933.33
2023-05-15T10:10:16.280Z,933.35
2023-05-15T10:11:17.215Z,933.35
2023-05-15T10:12:17.782Z,933.33
2023-05-15T10:13:17.927Z,933.31
2023-05-15T10:14:18.750Z,933.32
2023-05-15T10:15:19.035Z,933.34
2023-05-15T10:16:19.946Z,933.32
2023-05-15T10:17:20.916Z,933.28
2023-05-15T10:18:21.102Z,933.31
2023-05-15T10:19:21.297Z,933.25
2023-05-15T10:20:21.682Z,933.27
2023-05-15T10:21:21.897Z,933.28
2023-05-15T10:22:22.071Z,933.27
2023-05-15T10:23:22.242Z,933.2
2023-05-15T10:24:22.422Z,933.19
2023-05-15T10:25:23.145Z,933.23
2023-05-15T10:26:23.748Z,933.23
2023-05-15T10:27:24.400Z,933.24
2023-05-15T10:28:25.250Z,933.26
2023-05-15T10:29:25.615Z,933.27
2023-05-15T10:30:26.917Z,933.29
2023-05-15T10:31:27.000Z,933.27
2023-05-15T10:32:27.353Z,933.24
2023-05-15T10:33:27.960Z,933.24
2023-05-15T10:34:28.185Z,933.23
2023-05-15T10:35:29.151Z,933.24
2023-05-15T10:36:29.297Z,933.2
2023-05-15T10:37:30.049Z,933.21
2023-05-15T10:38:30.299Z,933.2
2023-05-15T10:39:30.831Z,933.19
2023-05-15T10:40:31.559Z,933.15
2023-05-15T10:41:32.506Z,933.18
2023-05-15T10:42:33.412Z,933.16
2023-05-15T10:43:33.909Z,933.13
2023-05-15T10:44:34.463Z,933.13
2023-05-15T10:45:35.000Z,933.13
2023-05-15T10:46:35.776Z,933.15
2023-05-15T10:47:35.903Z,933.16
2023-05-15T10:48:36.818Z,933.18
2023-05-15T10:49:37.591Z,933.12
2023-05-15T10:50:38.536Z,933.12
2023-05-15T10:51:38.697Z,933.15
2023-05-15T10:52:39.475Z,933.15
2023-05-15T10:53:40.487Z,933.16
2023-05-15T10:54:41.017Z,933.1
2023-05-15T10:55:41.525Z,933.09
2023-05-15T10:56:42.476Z,933.13
2023-05-15T10:57:43.358Z,933.11
2023-05-15T10:58:43.542Z,933.08
2023-05-15T10:59:43.754Z,933.05
2023-05-15T11:00:44.865Z,933.06
2023-05-15T11:01:45.656Z,933.14
2023-05-15T11:02:46.496Z,933.11
2023-05-15T11:03:49.604Z,933.05
2023-05-15T11:04:47.644Z,933.07
2023-05-15T11:05:48.648Z,933.08
2023-05-15T11:06:49.574Z,932.99
2023-05-15T11:07:50.434Z,932.95
2023-05-15T11:08:51.420Z,932.94
2023-05-15T11:09:52.124Z,932.91
2023-05-15T11:10:52.289Z,932.88
2023-05-15T11:11:53.058Z,932.9
2023-05-15T11:12:53.702Z,932.92
2023-05-15T11:13:54.360Z,932.89
2023-05-15T11:14:55.333Z,932.89
2023-05-15T11:15:56.103Z,932.83
2023-05-15T11:16:56.581Z,932.82
2023-05-15T11:17:56.877Z,932.82
2023-05-15T11:18:57.426Z,932.9
2023-05-15T11:19:58.332Z,932.88
2023-05-15T11:20:59.264Z,932.86
2023-05-15T11:22:00.192Z,932.84
2023-05-15T11:23:00.529Z,932.87
2023-05-15T11:24:00.846Z,932.87
2023-05-15T11:25:01.180Z,932.95
2023-05-15T11:26:01.904Z,932.87
2023-05-15T11:27:02.631Z,932.82
2023-05-15T11:28:03.651Z,932.83
2023-05-15T11:29:04.568Z,932.83
2023-05-15T11:30:05.527Z,932.83
2023-05-15T11:31:06.580Z,932.89
2023-05-15T11:32:07.625Z,932.8
2023-05-15T11:33:08.473Z,932.82
2023-05-15T11:34:09.043Z,932.8
2023-05-15T11:35:10.009Z,932.85
2023-05-15T11:36:10.726Z,932.83
2023-05-15T11:37:11.530Z,932.76
2023-05-15T11:38:12.420Z,932.8
2023-05-15T11:39:12.590Z,932.81
2023-05-15T11:40:13.429Z,932.81
2023-05-15T11:41:13.705Z,932.8
2023-05-15T11:42:14.229Z,932.82
2023-05-15T11:43:14.774Z,932.84
2023-05-15T11:44:15.716Z,932.82
2023-05-15T11:45:16.476Z,932.84
2023-05-15T11:46:16.919Z,932.85
2023-05-15T11:47:17.352Z,932.85
2023-05-15T11:48:18.538Z,932.81
2023-05-15T11:49:18.717Z,932.83
2023-05-15T11:50:19.275Z,932.79
2023-05-15T11:51:20.193Z,932.75
2023-05-15T11:52:20.747Z,932.86
2023-05-15T11:53:21.808Z,932.81
2023-05-15T11:54:22.751Z,932.76
2023-05-15T11:55:23.477Z,932.74
2023-05-15T11:56:24.212Z,932.77
2023-05-15T11:57:25.148Z,932.83
2023-05-15T11:58:25.378Z,932.82
2023-05-15T11:59:25.936Z,932.89
2023-05-15T12:00:26.644Z,932.85
2023-05-15T12:01:26.643Z,932.79
2023-05-15T12:02:27.643Z,932.82
2023-05-15T12:03:28.713Z,932.83
2023-05-15T12:04:29.257Z,932.81
2023-05-15T12:05:29.909Z,932.85
2023-05-15T12:06:30.856Z,932.85
2023-05-15T12:07:31.602Z,932.79
2023-05-15T12:08:32.314Z,932.81
2023-05-15T12:09:32.584Z,932.84
2023-05-15T12:10:33.098Z,932.89
2023-05-15T12:11:33.421Z,932.89
2023-05-15T12:12:33.936Z,932.87
2023-05-15T12:13:34.857Z,932.9
2023-05-15T12:14:35.780Z,932.91
2023-05-15T12:15:35.910Z,932.95
2023-05-15T12:16:36.657Z,932.95
2023-05-15T12:17:36.852Z,932.97
2023-05-15T12:18:37.171Z,932.98
2023-05-15T12:19:37.645Z,932.93
2023-05-15T12:20:38.620Z,932.98
2023-05-15T12:21:39.189Z,933.02
2023-05-15T12:22:40.111Z,933.01
2023-05-15T12:23:41.134Z,932.92
2023-05-15T12:24:41.568Z,932.87
2023-05-15T12:25:42.189Z,932.87
2023-05-15T12:26:42.995Z,932.82
2023-05-15T12:27:43.869Z,932.86
2023-05-15T12:28:44.760Z,932.85
2023-05-15T12:29:45.515Z,932.8
2023-05-15T12:30:46.265Z,932.77
2023-05-15T12:31:46.431Z,932.74
2023-05-15T12:32:46.741Z,932.74
2023-05-15T12:33:47.155Z,932.74
2023-05-15T12:34:47.763Z,932.66
2023-05-15T12:35:47.943Z,932.66
2023-05-15T12:36:48.378Z,932.67
2023-05-15T12:37:48.517Z,932.66
2023-05-15T12:38:49.149Z,932.68
2023-05-15T12:39:49.734Z,932.63